createdAt,value
2017-11-15T00:01:50.984Z,13.03
2017-11-15T00:04:18.362Z,13.37
2017-11-15T00:06:45.677Z,13.33
2017-11-15T00:09:13.017Z,13.60
2017-11-15T00:11:40.339Z,14.67
2017-11-15T00:14:07.665Z,13.13
2017-11-15T00:16:34.998Z,13.70
2017-11-15T00:19:02.343Z,13.87
2017-11-15T00:21:29.732Z,13.30
2017-11-15T00:23:57.080Z,14.07
2017-11-15T00:26:24.434Z,13.60
2017-11-15T00:28:51.769Z,14.73
2017-11-15T00:31:19.118Z,13.13
2017-11-15T00:33:52.595Z,14.50
2017-11-15T00:36:19.916Z,14.13
2017-11-15T00:38:47.237Z,14.20
2017-11-15T00:41:20.767Z,13.57
2017-11-15T00:43:48.085Z,14.23
2017-11-15T00:46:15.450Z,13.53
2017-11-15T00:48:42.802Z,14.37
2017-11-15T00:51:10.185Z,14.60
2017-11-15T00:53:39.391Z,14.97
2017-11-15T00:56:06.712Z,13.20
2017-11-15T00:58:34.045Z,13.60
2017-11-15T01:01:01.383Z,14.13
2017-11-15T01:03:28.693Z,13.30
2017-11-15T01:05:56.053Z,13.00
2017-11-15T01:08:24.280Z,13.60
2017-11-15T01:10:51.602Z,12.57
2017-11-15T01:13:18.917Z,11.27
2017-11-15T01:15:46.297Z,11.73
2017-11-15T01:18:14.514Z,12.37
2017-11-15T01:20:41.848Z,11.07
2017-11-15T01:23:09.190Z,12.27
2017-11-15T01:25:48.820Z,11.67
2017-11-15T01:28:16.159Z,11.33
2017-11-15T01:30:43.492Z,11.27
2017-11-15T01:33:10.854Z,12.60
2017-11-15T01:35:38.191Z,11.50
2017-11-15T01:38:05.549Z,12.00
2017-11-15T01:40:32.927Z,12.47
2017-11-15T01:43:00.253Z,12.97
2017-11-15T01:45:27.632Z,11.40
2017-11-15T01:47:54.957Z,11.60
2017-11-15T01:50:22.285Z,11.97
2017-11-15T02:01:13.693Z,12.60
2017-11-15T02:03:41.038Z,13.00
2017-11-15T02:06:08.369Z,12.70
2017-11-15T02:08:35.697Z,12.73
2017-11-15T02:11:03.027Z,13.77
2017-11-15T02:13:30.351Z,13.50
2017-11-15T02:15:57.678Z,12.83
2017-11-15T02:18:25.007Z,12.93
2017-11-15T02:20:52.332Z,13.40
2017-11-15T02:23:19.675Z,13.33
2017-11-15T02:25:47.038Z,14.57
2017-11-15T02:28:14.383Z,14.47
2017-11-15T02:30:41.737Z,13.53
2017-11-15T02:33:09.098Z,13.20
2017-11-15T02:35:36.454Z,14.47
2017-11-15T02:38:03.793Z,13.93
2017-11-15T02:40:31.946Z,13.90
2017-11-15T02:42:59.335Z,14.10
2017-11-15T02:45:26.669Z,13.80
2017-11-15T02:47:54.031Z,15.00
2017-11-15T02:50:21.359Z,15.37
2017-11-15T02:52:48.710Z,15.90
2017-11-15T02:55:16.048Z,16.70
2017-11-15T02:57:43.397Z,16.77
2017-11-15T03:00:10.756Z,17.60
2017-11-15T03:02:38.082Z,17.43
2017-11-15T03:05:05.417Z,17.30
2017-11-15T03:07:32.785Z,19.53
2017-11-15T03:10:00.128Z,17.93
2017-11-15T03:12:27.515Z,18.90
2017-11-15T03:14:54.948Z,17.57
2017-11-15T03:17:22.282Z,19.20
2017-11-15T03:19:49.609Z,18.77
2017-11-15T03:22:16.929Z,19.67
2017-11-15T03:24:44.261Z,20.37
2017-11-15T03:27:11.607Z,19.43
2017-11-15T03:29:38.981Z,20.73
2017-11-15T03:32:06.322Z,19.80
2017-11-15T03:34:33.670Z,18.50
2017-11-15T03:37:01.009Z,19.60
2017-11-15T03:39:28.346Z,18.80
2017-11-15T03:41:59.442Z,19.67
2017-11-15T03:44:26.811Z,19.00
2017-11-15T03:46:54.873Z,19.70
2017-11-15T03:49:22.191Z,18.47
2017-11-15T03:51:49.529Z,20.20
2017-11-15T03:54:16.846Z,19.70
2017-11-15T03:56:44.178Z,17.70
2017-11-15T03:59:11.502Z,19.40
2017-11-15T04:01:38.830Z,17.00
2017-11-15T04:04:06.147Z,18.10
2017-11-15T04:06:33.540Z,19.10
2017-11-15T04:09:00.854Z,18.30
2017-11-15T04:11:28.206Z,17.93
2017-11-15T04:13:55.529Z,17.70
2017-11-15T04:16:26.593Z,18.87
2017-11-15T04:18:53.970Z,18.80
2017-11-15T04:21:21.290Z,18.37
2017-11-15T04:23:48.702Z,18.93
2017-11-15T04:26:16.014Z,17.07
2017-11-15T04:28:43.353Z,17.47
2017-11-15T04:31:10.698Z,17.57
2017-11-15T04:33:38.066Z,17.50
2017-11-15T04:36:05.452Z,17.93
2017-11-15T04:38:32.788Z,16.07
2017-11-15T04:41:00.149Z,17.20
2017-11-15T04:43:27.482Z,16.90
2017-11-15T04:45:54.846Z,16.20
2017-11-15T04:48:22.198Z,17.70
2017-11-15T04:50:49.538Z,17.33
2017-11-15T04:53:16.953Z,16.40
2017-11-15T04:55:44.262Z,16.53
2017-11-15T04:58:11.613Z,15.90
2017-11-15T05:00:38.978Z,17.23
2017-11-15T05:03:09.677Z,15.80
2017-11-15T05:05:37.024Z,16.90
2017-11-15T05:08:04.334Z,15.60
2017-11-15T05:10:31.689Z,15.83
2017-11-15T05:12:58.997Z,16.53
2017-11-15T05:15:26.365Z,15.93
2017-11-15T05:17:53.794Z,16.20
2017-11-15T05:20:21.121Z,17.20
2017-11-15T05:22:48.442Z,16.83
2017-11-15T05:25:15.781Z,16.47
2017-11-15T05:27:43.119Z,16.50
2017-11-15T05:30:10.451Z,18.00
2017-11-15T05:32:37.766Z,15.63
2017-11-15T05:35:06.011Z,16.60
2017-11-15T05:37:36.447Z,16.83
2017-11-15T05:40:03.781Z,16.50
2017-11-15T05:42:34.744Z,16.80
2017-11-15T05:45:07.993Z,16.00
2017-11-15T05:47:37.241Z,16.10
2017-11-15T05:50:09.565Z,16.37
2017-11-15T05:52:36.903Z,16.70
2017-11-15T05:55:07.902Z,15.60
2017-11-15T05:57:42.366Z,16.43
2017-11-15T06:00:09.697Z,16.33
2017-11-15T06:02:37.016Z,15.47
2017-11-15T06:05:04.361Z,17.30
2017-11-15T06:07:35.041Z,15.87
2017-11-15T06:10:02.473Z,15.77
2017-11-15T06:12:29.717Z,16.07
2017-11-15T06:14:57.033Z,16.20
2017-11-15T06:17:24.472Z,15.60
2017-11-15T06:19:51.757Z,17.53
2017-11-15T06:22:19.050Z,17.10
2017-11-15T06:24:46.465Z,17.30
2017-11-15T06:27:13.797Z,16.73
2017-11-15T06:29:41.104Z,16.93
2017-11-15T06:32:08.497Z,18.10
2017-11-15T06:34:35.807Z,17.17
2017-11-15T06:37:03.299Z,17.50
2017-11-15T06:39:36.819Z,16.77
2017-11-15T06:42:04.142Z,17.17
2017-11-15T06:44:35.134Z,16.50
2017-11-15T06:47:02.636Z,17.60
2017-11-15T06:49:29.992Z,18.20
2017-11-15T06:51:57.316Z,18.47
2017-11-15T06:54:24.675Z,18.50
2017-11-15T06:56:52.054Z,18.53
2017-11-15T06:59:19.479Z,19.23
2017-11-15T07:01:50.375Z,18.87
2017-11-15T07:04:20.902Z,17.03
2017-11-15T07:06:48.237Z,16.30
2017-11-15T07:09:15.559Z,16.37
2017-11-15T07:11:42.915Z,16.67
2017-11-15T07:14:10.254Z,16.70
2017-11-15T07:16:41.025Z,16.43
2017-11-15T07:19:10.249Z,17.50
2017-11-15T07:21:38.474Z,16.87
2017-11-15T07:24:06.726Z,17.80
2017-11-15T07:26:34.063Z,18.43
2017-11-15T07:29:01.391Z,18.27
2017-11-15T07:31:28.722Z,17.23
2017-11-15T07:33:56.086Z,18.03
2017-11-15T07:36:26.391Z,18.30
2017-11-15T07:38:53.738Z,17.60
2017-11-15T07:41:21.101Z,17.93
2017-11-15T07:43:48.454Z,17.07
2017-11-15T07:46:15.810Z,19.13
2017-11-15T07:48:43.638Z,18.17
2017-11-15T07:51:11.012Z,16.50
2017-11-15T07:53:38.346Z,17.87
2017-11-15T07:56:05.714Z,18.50
2017-11-15T07:58:33.054Z,17.43
2017-11-15T08:01:00.372Z,17.67
2017-11-15T08:03:28.598Z,17.20
2017-11-15T08:05:55.910Z,19.53
2017-11-15T08:08:23.271Z,16.70
2017-11-15T08:10:50.609Z,17.50
2017-11-15T08:13:17.952Z,18.40
2017-11-15T08:15:45.269Z,17.77
2017-11-15T08:18:12.707Z,18.57
2017-11-15T08:20:40.027Z,19.20
2017-11-15T08:23:07.361Z,18.07
2017-11-15T08:25:34.717Z,19.20
2017-11-15T08:28:02.055Z,18.93
2017-11-15T08:30:29.402Z,19.33
2017-11-15T08:32:56.773Z,19.03
2017-11-15T08:35:24.153Z,16.00
2017-11-15T08:37:51.514Z,17.33
2017-11-15T08:40:18.850Z,17.30
2017-11-15T08:42:46.162Z,16.90
2017-11-15T08:45:13.496Z,18.13
2017-11-15T08:47:40.822Z,17.97
2017-11-15T08:50:08.177Z,19.40
2017-11-15T08:52:35.486Z,17.67
2017-11-15T08:55:02.855Z,18.47
2017-11-15T08:57:30.181Z,17.37
2017-11-15T08:59:59.413Z,17.67
2017-11-15T09:02:26.792Z,18.80
2017-11-15T09:04:57.771Z,17.87
2017-11-15T09:07:25.086Z,18.90
2017-11-15T09:09:52.423Z,18.83
2017-11-15T09:12:19.739Z,18.27
2017-11-15T09:14:50.418Z,18.03
2017-11-15T09:17:18.672Z,18.47
2017-11-15T09:19:49.813Z,19.43
2017-11-15T09:22:17.161Z,19.20
2017-11-15T09:24:44.505Z,17.80
2017-11-15T09:27:11.883Z,18.10
2017-11-15T09:29:39.211Z,16.73
2017-11-15T09:32:06.543Z,16.77
2017-11-15T09:34:33.918Z,17.40
2017-11-15T09:37:02.161Z,16.87
2017-11-15T09:39:29.488Z,16.20
2017-11-15T09:41:56.851Z,16.20
2017-11-15T09:44:24.170Z,16.23
2017-11-15T09:46:51.555Z,16.50
2017-11-15T09:49:18.905Z,15.23
2017-11-15T09:51:46.375Z,14.97
2017-11-15T09:54:13.993Z,15.43
2017-11-15T09:56:41.351Z,16.57
2017-11-15T09:59:14.926Z,17.70
2017-11-15T10:01:42.242Z,16.13
2017-11-15T10:04:11.465Z,16.67
2017-11-15T10:06:38.809Z,15.97
2017-11-15T10:09:07.090Z,16.07
2017-11-15T10:11:34.414Z,17.50
2017-11-15T10:14:07.507Z,15.57
2017-11-15T10:16:34.801Z,15.83
2017-11-15T10:19:07.857Z,15.50
2017-11-15T10:21:35.174Z,15.73
2017-11-15T10:24:02.542Z,17.20
2017-11-15T10:26:33.159Z,15.80
2017-11-15T10:29:00.538Z,16.30
2017-11-15T10:31:27.856Z,16.03
2017-11-15T10:33:55.202Z,15.57
2017-11-15T10:36:22.541Z,16.40
2017-11-15T10:38:56.003Z,15.80
2017-11-15T10:41:26.793Z,16.87
2017-11-15T10:43:54.145Z,14.80
2017-11-15T10:46:21.536Z,17.17
2017-11-15T10:48:48.865Z,17.10
2017-11-15T10:51:16.298Z,17.97
2017-11-15T10:53:43.609Z,16.50
2017-11-15T10:56:14.542Z,17.03
2017-11-15T10:58:41.862Z,16.30
2017-11-15T11:01:09.235Z,16.50
2017-11-15T11:03:36.559Z,16.57
2017-11-15T11:06:20.317Z,16.20
2017-11-15T11:08:47.671Z,16.13
2017-11-15T11:11:15.082Z,16.20
2017-11-15T11:13:42.571Z,15.80
2017-11-15T11:16:09.996Z,15.50
2017-11-15T11:18:37.464Z,16.30
2017-11-15T11:21:08.283Z,15.63
2017-11-15T11:23:35.596Z,15.73
2017-11-15T11:26:03.001Z,14.97
2017-11-15T11:28:30.323Z,15.53
2017-11-15T11:30:57.660Z,15.60
2017-11-15T11:33:25.006Z,15.77
2017-11-15T11:35:52.362Z,15.50
2017-11-15T11:38:19.750Z,15.50
2017-11-15T11:40:47.074Z,15.70
2017-11-15T11:43:15.635Z,16.20
2017-11-15T11:45:42.958Z,15.37
2017-11-15T11:48:10.302Z,14.20
2017-11-15T11:50:38.577Z,15.07
2017-11-15T11:53:09.000Z,15.17
2017-11-15T11:55:36.329Z,14.97
2017-11-15T11:58:10.844Z,15.20
2017-11-15T12:00:38.182Z,14.93
2017-11-15T12:03:05.557Z,16.47
2017-11-15T12:05:32.890Z,15.35
2017-11-15T12:08:00.231Z,13.63
2017-11-15T12:10:29.454Z,14.67
2017-11-15T12:12:58.702Z,15.40
2017-11-15T12:15:26.122Z,14.27
2017-11-15T12:17:53.477Z,14.50
2017-11-15T12:20:20.842Z,14.53
2017-11-15T12:22:48.167Z,14.00
2017-11-15T12:25:18.750Z,14.53
2017-11-15T12:27:46.078Z,13.53
2017-11-15T12:30:16.931Z,13.23
2017-11-15T12:32:44.273Z,14.97
2017-11-15T12:35:11.598Z,13.60
2017-11-15T12:40:25.049Z,13.40
2017-11-15T12:42:52.394Z,13.20
2017-11-15T12:45:19.897Z,13.70
2017-11-15T12:47:47.214Z,13.80
2017-11-15T12:50:14.678Z,13.07
2017-11-15T12:52:42.015Z,12.40
2017-11-15T12:55:09.453Z,13.20
2017-11-15T12:57:36.782Z,13.87
2017-11-15T13:00:07.814Z,12.83
2017-11-15T13:02:35.145Z,13.53
2017-11-15T13:05:02.454Z,13.13
2017-11-15T13:07:29.830Z,13.00
2017-11-15T13:10:08.230Z,15.07
2017-11-15T13:12:39.306Z,14.07
2017-11-15T13:15:08.510Z,13.50
2017-11-15T13:17:35.846Z,13.77
2017-11-15T13:20:03.512Z,13.60
2017-11-15T13:22:31.228Z,14.43
2017-11-15T13:25:02.518Z,13.90
2017-11-15T13:27:33.260Z,14.27
2017-11-15T13:30:00.583Z,14.53
2017-11-15T13:32:34.300Z,14.00
2017-11-15T13:35:07.951Z,14.07
2017-11-15T13:40:21.866Z,14.77
2017-11-15T13:42:54.383Z,14.87
2017-11-15T13:45:22.611Z,13.73
2017-11-15T13:48:03.194Z,13.93
2017-11-15T13:50:33.616Z,14.87
2017-11-15T13:53:07.106Z,13.80
2017-11-15T13:55:48.216Z,14.57
2017-11-15T13:58:21.544Z,13.70
2017-11-15T14:00:59.326Z,13.80
2017-11-15T14:03:26.657Z,13.33
2017-11-15T14:05:57.244Z,12.93
2017-11-15T14:08:34.577Z,14.67
2017-11-15T14:11:08.413Z,13.67
2017-11-15T14:13:35.738Z,14.40
2017-11-15T14:16:03.061Z,13.97
2017-11-15T14:18:30.395Z,13.47
2017-11-15T14:20:57.781Z,14.10
2017-11-15T14:23:25.264Z,13.47
2017-11-15T14:25:52.669Z,12.90
2017-11-15T14:28:20.033Z,13.23
2017-11-15T14:30:47.472Z,13.90
2017-11-15T14:33:14.851Z,13.80
2017-11-15T14:35:42.248Z,14.67
2017-11-15T14:38:09.610Z,14.80
2017-11-15T14:40:39.956Z,14.00
2017-11-15T14:43:07.448Z,14.17
2017-11-15T14:45:34.910Z,13.87
2017-11-15T14:48:02.338Z,14.20
2017-11-15T14:50:29.729Z,15.07
2017-11-15T14:52:58.086Z,14.13
2017-11-15T14:55:25.425Z,16.00
2017-11-15T14:57:52.820Z,15.03
2017-11-15T15:00:20.157Z,14.30
2017-11-15T15:02:47.548Z,15.57
2017-11-15T15:05:14.859Z,14.83
2017-11-15T15:07:42.206Z,14.43
2017-11-15T15:10:09.644Z,14.60
2017-11-15T15:12:37.059Z,14.13
2017-11-15T15:15:04.420Z,14.10
2017-11-15T15:17:31.837Z,14.27
2017-11-15T15:19:59.646Z,14.80
2017-11-15T15:22:26.984Z,15.13
2017-11-15T15:24:54.585Z,14.80
2017-11-15T15:27:21.924Z,13.20
2017-11-15T15:29:49.248Z,14.10
2017-11-15T15:32:16.609Z,14.40
2017-11-15T15:34:44.058Z,13.90
2017-11-15T15:37:11.558Z,14.17
2017-11-15T15:39:38.925Z,14.83
2017-11-15T15:42:08.367Z,15.47
2017-11-15T15:44:35.774Z,16.30
2017-11-15T15:47:03.128Z,15.77
2017-11-15T15:49:30.549Z,17.57
2017-11-15T15:52:03.868Z,17.97
2017-11-15T15:54:34.667Z,17.40
2017-11-15T15:57:05.222Z,16.27
2017-11-15T15:59:32.558Z,17.40
2017-11-15T16:01:59.909Z,17.87
2017-11-15T16:04:27.257Z,18.70
2017-11-15T16:06:54.625Z,18.20
2017-11-15T16:09:21.938Z,17.53
2017-11-15T16:11:52.805Z,17.67
2017-11-15T16:14:20.103Z,17.73
2017-11-15T16:16:49.333Z,18.23
2017-11-15T16:19:16.661Z,17.43
2017-11-15T16:21:47.812Z,16.80
2017-11-15T16:24:15.165Z,18.10
2017-11-15T16:26:46.254Z,17.77
2017-11-15T16:29:13.605Z,19.30
2017-11-15T16:31:44.602Z,21.53
2017-11-15T16:34:11.986Z,23.20
2017-11-15T16:36:39.409Z,21.83
2017-11-15T16:39:06.815Z,19.40
2017-11-15T16:41:34.194Z,23.53
2017-11-15T16:44:15.764Z,20.33
2017-11-15T16:46:43.101Z,23.77
2017-11-15T16:49:17.266Z,24.57
2017-11-15T16:51:44.610Z,21.80
2017-11-15T16:54:19.482Z,21.20
2017-11-15T16:56:46.845Z,20.80
2017-11-15T16:59:14.222Z,22.97
2017-11-15T17:01:41.557Z,24.13
2017-11-15T17:04:09.229Z,25.60
2017-11-15T17:06:45.121Z,23.40
2017-11-15T17:09:12.447Z,22.57
2017-11-15T17:11:39.767Z,20.70
2017-11-15T17:14:13.894Z,30.10
2017-11-15T17:16:41.211Z,25.07
2017-11-15T17:19:14.311Z,23.10
2017-11-15T17:21:42.509Z,24.60
2017-11-15T17:24:10.151Z,24.20
2017-11-15T17:26:38.395Z,25.90
2017-11-15T17:29:05.730Z,22.40
2017-11-15T17:31:33.045Z,23.73
2017-11-15T17:34:06.597Z,21.60
2017-11-15T17:36:37.429Z,22.17
2017-11-15T17:39:08.134Z,21.00
2017-11-15T17:41:37.417Z,19.03
2017-11-15T17:44:08.406Z,19.13
2017-11-15T17:46:35.722Z,20.33
2017-11-15T17:49:03.049Z,23.13
2017-11-15T17:51:30.415Z,26.27
2017-11-15T17:53:57.741Z,22.37
2017-11-15T17:56:25.103Z,22.90
2017-11-15T17:58:52.432Z,21.50
2017-11-15T18:01:19.803Z,21.27
2017-11-15T18:03:47.131Z,22.00
2017-11-15T18:06:14.454Z,22.40
2017-11-15T18:08:41.778Z,21.30
2017-11-15T18:11:09.166Z,21.37
2017-11-15T18:13:36.483Z,20.73
2017-11-15T18:16:03.849Z,22.17
2017-11-15T18:18:31.188Z,21.10
2017-11-15T18:20:59.438Z,20.70
2017-11-15T18:23:29.822Z,22.10
2017-11-15T18:26:00.569Z,21.07
2017-11-15T18:28:27.886Z,21.17
2017-11-15T18:30:55.248Z,20.60
2017-11-15T18:33:22.655Z,21.50
2017-11-15T18:35:49.998Z,20.60
2017-11-15T18:38:17.318Z,22.13
2017-11-15T18:40:44.684Z,22.30
2017-11-15T18:43:12.018Z,20.20
2017-11-15T18:45:39.362Z,20.20
2017-11-15T18:48:06.734Z,21.20
2017-11-15T18:50:34.067Z,22.77
2017-11-15T18:53:01.491Z,20.40
2017-11-15T18:55:28.816Z,20.30
2017-11-15T18:57:56.145Z,21.30
2017-11-15T19:00:23.458Z,22.00
2017-11-15T19:02:50.969Z,25.00
2017-11-15T19:05:18.318Z,23.67
2017-11-15T19:07:45.671Z,21.17
2017-11-15T19:10:12.997Z,21.47
2017-11-15T19:12:43.362Z,21.47
2017-11-15T19:15:10.694Z,22.70
2017-11-15T19:17:38.075Z,22.27
2017-11-15T19:20:05.387Z,21.90
2017-11-15T19:22:32.746Z,21.67
2017-11-15T19:25:00.167Z,20.23
2017-11-15T19:27:27.490Z,22.60
2017-11-15T19:29:55.734Z,21.57
2017-11-15T19:32:23.074Z,21.60
2017-11-15T19:34:50.405Z,21.17
2017-11-15T19:37:18.216Z,20.80
2017-11-15T19:39:45.595Z,21.33
2017-11-15T19:42:12.916Z,22.30
2017-11-15T19:44:42.198Z,21.70
2017-11-15T19:47:09.568Z,21.50
2017-11-15T19:49:36.929Z,22.13
2017-11-15T19:52:04.287Z,22.30
2017-11-15T19:54:31.707Z,22.83
2017-11-15T19:56:59.052Z,22.83
2017-11-15T19:59:26.425Z,24.10
2017-11-15T20:01:59.589Z,21.27
2017-11-15T20:04:26.968Z,23.80
2017-11-15T20:06:54.327Z,22.60
2017-11-15T20:09:21.744Z,23.00
2017-11-15T20:11:49.073Z,23.00
2017-11-15T20:14:16.384Z,22.60
2017-11-15T20:16:43.737Z,24.07
2017-11-15T20:19:11.089Z,25.40
2017-11-15T20:21:38.439Z,25.03
2017-11-15T20:24:06.650Z,24.43
2017-11-15T20:26:40.428Z,26.30
2017-11-15T20:29:07.740Z,24.33
2017-11-15T20:31:35.113Z,25.03
2017-11-15T20:34:02.476Z,23.90
2017-11-15T20:36:29.882Z,25.20
2017-11-15T20:39:00.465Z,24.13
2017-11-15T20:41:27.777Z,23.40
2017-11-15T20:43:55.111Z,24.30
2017-11-15T20:46:26.086Z,23.60
2017-11-15T20:48:53.442Z,22.50
2017-11-15T20:51:20.758Z,24.43
2017-11-15T20:53:49.061Z,23.57
2017-11-15T20:56:16.424Z,22.03
2017-11-15T20:58:43.760Z,24.37
2017-11-15T21:01:11.098Z,22.80
2017-11-15T21:03:43.079Z,24.00
2017-11-15T21:06:10.450Z,24.10
2017-11-15T21:08:37.774Z,25.00
2017-11-15T21:11:05.150Z,26.17
2017-11-15T21:13:32.503Z,27.97
2017-11-15T21:15:59.826Z,32.63
2017-11-15T21:18:27.191Z,26.90
2017-11-15T21:20:56.400Z,31.80
2017-11-15T21:23:23.737Z,26.10
2017-11-15T21:25:57.169Z,31.10
2017-11-15T21:28:24.482Z,27.17
2017-11-15T21:30:58.234Z,28.50
2017-11-15T21:33:26.185Z,22.90
2017-11-15T21:36:03.493Z,25.40
2017-11-15T21:38:35.422Z,26.33
2017-11-15T21:41:02.761Z,24.50
2017-11-15T21:43:30.159Z,24.67
2017-11-15T21:45:57.495Z,24.27
2017-11-15T21:48:28.323Z,24.03
2017-11-15T21:50:55.646Z,24.77
2017-11-15T21:53:22.963Z,25.47
2017-11-15T21:55:50.306Z,25.07
2017-11-15T21:58:17.613Z,26.10
2017-11-15T22:00:45.043Z,24.83
2017-11-15T22:03:12.808Z,24.90
2017-11-15T22:05:40.185Z,26.00
2017-11-15T22:08:07.603Z,27.37
2017-11-15T22:10:34.961Z,26.07
2017-11-15T22:13:02.348Z,25.80
2017-11-15T22:15:29.678Z,28.03
2017-11-15T22:17:57.019Z,25.67
2017-11-15T22:20:24.346Z,24.83
2017-11-15T22:22:55.078Z,24.23
2017-11-15T22:25:22.493Z,25.53
2017-11-15T22:27:49.850Z,24.67
2017-11-15T22:30:17.285Z,24.30
2017-11-15T22:32:45.570Z,26.23
2017-11-15T22:35:12.932Z,27.97
2017-11-15T22:37:46.146Z,25.60
2017-11-15T22:40:16.935Z,25.13
2017-11-15T22:42:46.216Z,27.77
2017-11-15T22:45:13.590Z,28.00
2017-11-15T22:47:40.935Z,25.47
2017-11-15T22:50:08.348Z,28.20
2017-11-15T22:52:35.727Z,26.57
2017-11-15T22:55:03.067Z,28.70
2017-11-15T22:57:34.055Z,25.80
2017-11-15T23:00:04.603Z,26.90
2017-11-15T23:02:31.987Z,29.23
2017-11-15T23:05:06.396Z,28.60
2017-11-15T23:07:33.828Z,31.43
2017-11-15T23:10:01.314Z,28.00
2017-11-15T23:12:28.708Z,30.67
2017-11-15T23:14:56.156Z,27.03
2017-11-15T23:17:23.537Z,30.60
2017-11-15T23:19:50.916Z,28.97
2017-11-15T23:22:18.277Z,27.93
2017-11-15T23:24:48.863Z,26.87
2017-11-15T23:27:16.242Z,26.47
2017-11-15T23:29:43.595Z,26.00
2017-11-15T23:32:10.954Z,27.70
2017-11-15T23:34:38.327Z,25.83
2017-11-15T23:37:05.682Z,26.80
2017-11-15T23:39:33.028Z,28.30
2017-11-15T23:42:00.443Z,25.07
2017-11-15T23:44:27.803Z,25.73
2017-11-15T23:46:55.148Z,28.20
2017-11-15T23:49:22.472Z,27.10
2017-11-15T23:51:49.820Z,26.63
2017-11-15T23:54:17.859Z,26.47
2017-11-15T23:56:45.189Z,27.33
2017-11-15T23:59:13.034Z,28.73
